createdAt,value
2022-09-20T00:01:46.548Z,100369.00
2022-09-20T00:04:14.096Z,100368.63
2022-09-20T00:06:41.594Z,100377.53
2022-09-20T00:09:09.109Z,100374.91
2022-09-20T00:11:37.737Z,100370.22
2022-09-20T00:14:08.596Z,100374.63
2022-09-20T00:16:41.170Z,100375.63
2022-09-20T00:19:10.230Z,100375.69
2022-09-20T00:21:37.837Z,100374.03
2022-09-20T00:24:06.422Z,100373.09
2022-09-20T00:26:34.191Z,100380.38
2022-09-20T00:29:01.781Z,100385.03
2022-09-20T00:31:29.320Z,100370.06
2022-09-20T00:34:17.162Z,100371.25
2022-09-20T00:36:45.509Z,100372.16
2022-09-20T00:39:15.045Z,100380.84
2022-09-20T00:41:42.730Z,100377.88
2022-09-20T00:44:45.886Z,100379.25
2022-09-20T00:47:18.482Z,100376.94
2022-09-20T00:49:47.767Z,100371.03
2022-09-20T00:52:16.864Z,100380.97
2022-09-20T00:54:44.568Z,100380.28
2022-09-20T00:57:12.117Z,100378.63
2022-09-20T00:59:42.856Z,100377.94
2022-09-20T01:02:16.868Z,100384.31
2022-09-20T01:04:47.213Z,100381.28
2022-09-20T01:07:22.137Z,100381.84
2022-09-20T01:09:50.412Z,100380.84
2022-09-20T01:12:21.381Z,100384.75
2022-09-20T01:14:51.905Z,100374.34
2022-09-20T01:17:23.363Z,100374.56
2022-09-20T01:20:01.364Z,100378.72
2022-09-20T01:22:42.529Z,100375.63
2022-09-20T01:25:16.187Z,100374.19
2022-09-20T01:27:48.190Z,100374.75
2022-09-20T01:30:19.882Z,100383.13
2022-09-20T01:33:01.340Z,100377.91
2022-09-20T01:35:30.058Z,100374.06
2022-09-20T01:38:21.781Z,100376.72
2022-09-20T01:41:07.496Z,100382.59
2022-09-20T01:43:41.875Z,100380.50
2022-09-20T01:46:22.776Z,100376.19
2022-09-20T01:48:52.780Z,100378.97
2022-09-20T01:51:43.292Z,100383.13
2022-09-20T01:54:31.385Z,100384.59
2022-09-20T01:57:35.006Z,100376.91
2022-09-20T02:00:13.999Z,100379.47
2022-09-20T02:03:13.566Z,100380.31
2022-09-20T02:06:08.698Z,100376.69
2022-09-20T02:09:18.676Z,100380.94
2022-09-20T02:11:56.503Z,100369.78
2022-09-20T02:14:35.729Z,100380.34
2022-09-20T02:17:14.704Z,100369.69
2022-09-20T02:19:59.862Z,100366.97
2022-09-20T02:22:41.163Z,100372.16
2022-09-20T02:25:36.896Z,100372.16
2022-09-20T02:28:21.429Z,100373.81
2022-09-20T02:30:56.705Z,100373.00
2022-09-20T02:33:35.725Z,100371.38
2022-09-20T02:36:22.793Z,100378.31
2022-09-20T02:39:00.222Z,100380.28
2022-09-20T02:41:52.576Z,100381.47
2022-09-20T02:44:30.304Z,100383.25
2022-09-20T02:47:07.844Z,100389.25
2022-09-20T02:49:48.917Z,100383.53
2022-09-20T02:52:26.991Z,100385.56
2022-09-20T02:55:04.361Z,100383.69
2022-09-20T02:57:46.873Z,100387.81
2022-09-20T03:00:20.623Z,100384.50
2022-09-20T03:03:00.453Z,100379.25
2022-09-20T03:05:38.195Z,100379.75
2022-09-20T03:08:17.913Z,100383.41
2022-09-20T03:10:53.958Z,100383.91
2022-09-20T03:13:32.997Z,100387.13
2022-09-20T03:16:12.284Z,100383.53
2022-09-20T03:18:52.243Z,100382.19
2022-09-20T03:21:35.884Z,100385.56
2022-09-20T03:24:13.121Z,100380.84
2022-09-20T03:26:51.965Z,100381.28
2022-09-20T03:29:36.158Z,100379.03
2022-09-20T03:32:16.296Z,100383.22
2022-09-20T03:34:53.687Z,100384.69
2022-09-20T03:37:43.292Z,100379.25
2022-09-20T03:40:46.426Z,100384.22
2022-09-20T03:43:25.635Z,100386.63
2022-09-20T03:46:05.135Z,100383.47
2022-09-20T03:48:57.049Z,100388.41
2022-09-20T03:51:33.739Z,100384.03
2022-09-20T03:54:35.685Z,100382.00
2022-09-20T03:57:21.587Z,100378.97
2022-09-20T04:00:04.589Z,100380.91
2022-09-20T04:02:41.200Z,100382.25
2022-09-20T04:05:13.379Z,100377.44
2022-09-20T04:07:52.995Z,100377.81
2022-09-20T04:10:34.746Z,100376.63
2022-09-20T04:13:17.113Z,100375.03
2022-09-20T04:15:52.607Z,100372.66
2022-09-20T04:18:31.631Z,100377.84
2022-09-20T04:21:05.506Z,100380.75
2022-09-20T04:23:41.493Z,100383.13
2022-09-20T04:26:10.720Z,100387.19
2022-09-20T04:28:44.205Z,100380.47
2022-09-20T04:31:22.182Z,100382.84
2022-09-20T04:33:52.610Z,100378.13
2022-09-20T04:36:35.760Z,100387.50
2022-09-20T04:39:18.059Z,100382.34
2022-09-20T04:42:27.950Z,100390.22
2022-09-20T04:45:37.772Z,100393.66
2022-09-20T04:48:45.206Z,100399.22
2022-09-20T04:51:38.276Z,100397.22
2022-09-20T04:54:38.760Z,100400.25
2022-09-20T04:57:25.555Z,100403.38
2022-09-20T05:00:04.967Z,100403.75
2022-09-20T05:03:03.258Z,100406.13
2022-09-20T05:06:03.030Z,100401.00
2022-09-20T05:09:07.887Z,100411.53
2022-09-20T05:11:57.939Z,100404.19
2022-09-20T05:14:45.567Z,100402.88
2022-09-20T05:17:25.353Z,100405.19
2022-09-20T05:20:24.177Z,100406.94
2022-09-20T05:23:13.908Z,100408.47
2022-09-20T05:25:59.637Z,100412.31
2022-09-20T05:28:35.476Z,100411.16
2022-09-20T05:31:10.817Z,100410.47
2022-09-20T05:33:48.251Z,100417.66
2022-09-20T05:36:24.551Z,100414.91
2022-09-20T05:39:03.485Z,100411.75
2022-09-20T05:41:40.396Z,100412.75
2022-09-20T05:44:20.935Z,100416.81
2022-09-20T05:47:00.057Z,100422.44
2022-09-20T05:49:48.074Z,100428.44
2022-09-20T05:52:32.720Z,100427.22
2022-09-20T05:55:43.214Z,100431.25
2022-09-20T05:58:34.341Z,100433.19
2022-09-20T06:01:08.178Z,100432.75
2022-09-20T06:03:41.019Z,100433.22
2022-09-20T06:06:15.441Z,100436.81
2022-09-20T06:08:58.153Z,100442.66
2022-09-20T06:11:47.116Z,100443.16
2022-09-20T06:14:32.733Z,100439.03
2022-09-20T06:17:03.658Z,100443.44
2022-09-20T06:19:40.194Z,100440.69
2022-09-20T06:22:19.178Z,100442.97
2022-09-20T06:24:50.079Z,100439.94
2022-09-20T06:27:22.040Z,100442.72
2022-09-20T06:29:54.354Z,100451.34
2022-09-20T06:32:21.948Z,100449.53
2022-09-20T06:34:49.947Z,100455.06
2022-09-20T06:37:51.040Z,100447.94
2022-09-20T06:40:52.348Z,100450.53
2022-09-20T06:43:19.875Z,100453.13
2022-09-20T06:45:48.994Z,100449.44
2022-09-20T06:48:16.693Z,100455.16
2022-09-20T06:50:45.238Z,100448.72
2022-09-20T06:53:18.124Z,100454.91
2022-09-20T06:55:47.134Z,100457.41
2022-09-20T06:58:15.240Z,100450.47
2022-09-20T07:01:57.465Z,100460.59
2022-09-20T07:04:26.574Z,100473.47
2022-09-20T07:07:00.207Z,100474.31
2022-09-20T07:09:27.988Z,100478.44
2022-09-20T07:11:58.973Z,100482.50
2022-09-20T07:14:27.262Z,100483.28
2022-09-20T07:16:55.087Z,100486.72
2022-09-20T07:19:23.235Z,100489.78
2022-09-20T07:21:52.121Z,100493.31
2022-09-20T07:24:19.980Z,100487.81
2022-09-20T07:26:55.853Z,100490.50
2022-09-20T07:29:23.420Z,100494.94
2022-09-20T07:31:51.192Z,100496.00
2022-09-20T07:34:20.302Z,100487.66
2022-09-20T07:36:47.872Z,100495.94
2022-09-20T07:39:17.892Z,100493.63
2022-09-20T07:41:46.492Z,100503.69
2022-09-20T07:44:24.795Z,100499.91
2022-09-20T07:46:54.097Z,100504.84
2022-09-20T07:49:22.497Z,100489.88
2022-09-20T07:51:50.812Z,100496.06
2022-09-20T07:54:19.799Z,100494.72
2022-09-20T07:56:47.821Z,100498.94
2022-09-20T07:59:16.192Z,100497.91
2022-09-20T08:01:44.149Z,100495.50
2022-09-20T08:04:12.175Z,100503.44
2022-09-20T08:06:41.286Z,100497.53
2022-09-20T08:09:11.286Z,100503.28
2022-09-20T08:11:42.055Z,100506.03
2022-09-20T08:14:14.184Z,100502.34
2022-09-20T08:16:43.754Z,100499.31
2022-09-20T08:19:17.227Z,100507.19
2022-09-20T08:21:44.811Z,100512.31
2022-09-20T08:24:12.882Z,100515.56
2022-09-20T08:26:41.785Z,100512.81
2022-09-20T08:29:09.396Z,100515.34
2022-09-20T08:31:42.064Z,100501.59
2022-09-20T08:34:11.227Z,100504.28
2022-09-20T08:36:42.015Z,100506.56
2022-09-20T08:42:10.062Z,100509.41
2022-09-20T08:44:47.822Z,100510.66
2022-09-20T08:47:20.194Z,100513.00
2022-09-20T08:49:48.140Z,100512.88
2022-09-20T08:52:19.014Z,100520.50
2022-09-20T08:54:47.399Z,100522.72
2022-09-20T08:57:19.329Z,100525.59
2022-09-20T08:59:47.334Z,100529.41
2022-09-20T09:02:17.699Z,100527.50
2022-09-20T09:04:48.272Z,100533.19
2022-09-20T09:07:19.696Z,100532.25
2022-09-20T09:09:47.781Z,100528.97
2022-09-20T09:12:22.098Z,100528.88
2022-09-20T09:14:55.806Z,100528.03
2022-09-20T09:17:28.431Z,100536.09
2022-09-20T09:19:57.458Z,100538.59
2022-09-20T09:22:32.712Z,100544.09
2022-09-20T09:25:20.176Z,100542.13
2022-09-20T09:27:57.228Z,100547.66
2022-09-20T09:30:28.785Z,100542.56
2022-09-20T09:33:25.130Z,100541.25
2022-09-20T09:35:55.633Z,100541.97
2022-09-20T09:38:25.263Z,100547.66
2022-09-20T09:40:54.790Z,100548.28
2022-09-20T09:43:27.186Z,100539.59
2022-09-20T09:45:55.197Z,100540.31
2022-09-20T09:48:26.838Z,100534.13
2022-09-20T09:51:10.625Z,100535.25
2022-09-20T09:53:39.153Z,100532.72
2022-09-20T09:56:22.042Z,100522.81
2022-09-20T09:59:22.893Z,100529.09
2022-09-20T10:02:00.234Z,100524.44
2022-09-20T10:04:36.744Z,100522.97
2022-09-20T10:07:10.476Z,100520.03
2022-09-20T10:09:55.695Z,100519.91
2022-09-20T10:12:38.307Z,100524.16
2022-09-20T10:15:22.941Z,100522.63
2022-09-20T10:18:05.523Z,100514.72
2022-09-20T10:20:45.997Z,100520.47
2022-09-20T10:24:03.244Z,100517.78
2022-09-20T10:26:39.811Z,100523.50
2022-09-20T10:29:21.746Z,100521.19
2022-09-20T10:31:58.425Z,100530.34
2022-09-20T10:35:09.223Z,100530.66
2022-09-20T10:37:49.444Z,100527.34
2022-09-20T10:40:48.177Z,100523.50
2022-09-20T10:43:23.685Z,100524.50
2022-09-20T10:46:27.929Z,100520.34
2022-09-20T10:48:59.831Z,100523.75
2022-09-20T10:51:35.221Z,100523.88
2022-09-20T10:54:11.120Z,100527.91
2022-09-20T10:56:44.913Z,100531.91
2022-09-20T10:59:32.459Z,100535.59
2022-09-20T11:02:15.135Z,100528.75
2022-09-20T11:05:09.211Z,100531.81
2022-09-20T11:07:52.457Z,100523.19
2022-09-20T11:10:24.206Z,100527.94
2022-09-20T11:12:57.094Z,100533.41
2022-09-20T11:15:28.939Z,100528.72
2022-09-20T11:18:05.378Z,100539.47
2022-09-20T11:20:44.044Z,100535.06
2022-09-20T11:23:17.437Z,100531.28
2022-09-20T11:25:51.625Z,100535.34
2022-09-20T11:28:25.740Z,100537.84
2022-09-20T11:31:00.981Z,100531.81
2022-09-20T11:33:32.545Z,100539.22
2022-09-20T11:36:04.136Z,100544.03
2022-09-20T11:38:38.210Z,100535.06
2022-09-20T11:41:14.360Z,100537.47
2022-09-20T11:43:44.312Z,100537.16
2022-09-20T11:46:14.907Z,100534.00
2022-09-20T11:48:48.902Z,100536.16
2022-09-20T11:51:35.717Z,100535.88
2022-09-20T11:54:28.141Z,100533.47
2022-09-20T11:56:57.995Z,100532.25
2022-09-20T11:59:33.300Z,100535.41
2022-09-20T12:02:04.213Z,100535.94
2022-09-20T12:04:36.229Z,100539.06
2022-09-20T12:07:11.538Z,100535.91
2022-09-20T12:09:44.993Z,100537.25
2022-09-20T12:12:20.086Z,100536.91
2022-09-20T12:14:54.353Z,100527.06
2022-09-20T12:17:59.239Z,100522.34
2022-09-20T12:21:06.009Z,100526.47
2022-09-20T12:24:17.465Z,100525.91
2022-09-20T12:26:46.894Z,100532.69
2022-09-20T12:29:55.267Z,100534.22
2022-09-20T12:32:54.985Z,100528.50
2022-09-20T12:35:55.822Z,100533.34
2022-09-20T12:38:39.274Z,100523.53
2022-09-20T12:41:14.317Z,100529.69
2022-09-20T12:43:53.827Z,100529.81
2022-09-20T12:46:30.695Z,100528.28
2022-09-20T12:49:37.177Z,100521.34
2022-09-20T12:52:22.699Z,100519.63
2022-09-20T12:54:56.376Z,100522.13
2022-09-20T12:57:33.108Z,100510.47
2022-09-20T13:00:03.201Z,100514.91
2022-09-20T13:03:00.195Z,100520.94
2022-09-20T13:05:38.002Z,100515.53
2022-09-20T13:08:16.984Z,100515.03
2022-09-20T13:10:49.922Z,100517.63
2022-09-20T13:13:31.513Z,100513.84
2022-09-20T13:16:01.159Z,100520.97
2022-09-20T13:18:30.329Z,100522.03
2022-09-20T13:21:00.247Z,100506.44
2022-09-20T13:23:34.031Z,100509.53
2022-09-20T13:26:03.870Z,100514.97
2022-09-20T13:28:38.476Z,100509.16
2022-09-20T13:31:35.521Z,100507.97
2022-09-20T13:34:23.786Z,100509.06
2022-09-20T13:36:56.498Z,100509.81
2022-09-20T13:39:29.142Z,100508.69
2022-09-20T13:42:02.311Z,100506.84
2022-09-20T13:44:34.288Z,100509.53
2022-09-20T13:47:02.483Z,100511.50
2022-09-20T13:49:33.006Z,100509.75
2022-09-20T13:52:12.459Z,100507.31
2022-09-20T13:54:39.957Z,100503.72
2022-09-20T13:57:19.846Z,100508.13
2022-09-20T13:59:49.524Z,100502.94
2022-09-20T14:02:23.536Z,100504.97
2022-09-20T14:04:54.455Z,100509.69
2022-09-20T14:07:25.717Z,100513.19
2022-09-20T14:09:54.030Z,100513.97
2022-09-20T14:12:23.655Z,100516.66
2022-09-20T14:14:53.676Z,100519.19
2022-09-20T14:17:24.480Z,100517.47
2022-09-20T14:19:54.639Z,100511.59
2022-09-20T14:22:25.231Z,100514.88
2022-09-20T14:25:01.572Z,100514.38
2022-09-20T14:27:31.109Z,100519.31
2022-09-20T14:30:00.080Z,100515.47
2022-09-20T14:32:44.760Z,100514.06
2022-09-20T14:35:18.294Z,100510.97
2022-09-20T14:37:49.204Z,100511.53
2022-09-20T14:40:25.267Z,100512.13
2022-09-20T14:43:04.175Z,100514.84
2022-09-20T14:45:35.112Z,100516.34
2022-09-20T14:48:10.290Z,100519.50
2022-09-20T14:50:40.496Z,100515.16
2022-09-20T14:53:24.843Z,100526.50
2022-09-20T14:56:10.204Z,100525.16
2022-09-20T14:59:03.782Z,100519.19
2022-09-20T15:01:33.692Z,100523.03
2022-09-20T15:04:08.183Z,100523.81
2022-09-20T15:06:36.891Z,100526.09
2022-09-20T15:09:04.666Z,100519.47
2022-09-20T15:11:32.665Z,100527.84
2022-09-20T15:14:00.153Z,100528.06
2022-09-20T15:16:29.506Z,100534.41
2022-09-20T15:18:58.415Z,100525.09
2022-09-20T15:21:26.007Z,100528.53
2022-09-20T15:23:53.902Z,100530.88
2022-09-20T15:26:22.227Z,100531.94
2022-09-20T15:28:50.284Z,100529.91
2022-09-20T15:31:19.826Z,100526.16
2022-09-20T15:33:47.361Z,100534.22
2022-09-20T15:36:16.207Z,100529.41
2022-09-20T15:38:43.713Z,100533.56
2022-09-20T15:41:11.402Z,100533.28
2022-09-20T15:43:43.108Z,100525.25
2022-09-20T15:46:19.556Z,100523.50
2022-09-20T15:48:47.504Z,100525.81
2022-09-20T15:51:16.620Z,100525.31
2022-09-20T15:53:45.605Z,100523.41
2022-09-20T15:56:19.282Z,100523.22
2022-09-20T15:58:48.238Z,100520.97
2022-09-20T16:01:16.701Z,100527.53
2022-09-20T16:03:46.040Z,100530.53
2022-09-20T16:06:14.739Z,100529.97
2022-09-20T16:08:44.205Z,100530.81
2022-09-20T16:11:20.449Z,100527.84
2022-09-20T16:13:54.517Z,100535.69
2022-09-20T16:16:22.657Z,100529.25
2022-09-20T16:19:07.785Z,100531.72
2022-09-20T16:21:36.209Z,100544.03
2022-09-20T16:24:05.969Z,100541.13
2022-09-20T16:26:34.396Z,100545.56
2022-09-20T16:29:04.470Z,100544.53
2022-09-20T16:31:36.474Z,100547.28
2022-09-20T16:34:05.758Z,100548.41
2022-09-20T16:36:34.013Z,100549.00
2022-09-20T16:39:01.509Z,100547.59
2022-09-20T16:41:31.925Z,100553.53
2022-09-20T16:43:59.410Z,100555.13
2022-09-20T16:46:27.497Z,100552.06
2022-09-20T16:48:56.624Z,100557.69
2022-09-20T16:51:26.036Z,100564.63
2022-09-20T16:53:55.884Z,100562.03
2022-09-20T16:56:25.100Z,100558.94
2022-09-20T16:58:55.100Z,100567.00
2022-09-20T17:01:23.093Z,100567.94
2022-09-20T17:03:51.358Z,100570.63
2022-09-20T17:06:19.177Z,100570.72
2022-09-20T17:08:48.584Z,100575.03
2022-09-20T17:11:17.760Z,100573.16
2022-09-20T17:13:47.125Z,100572.34
2022-09-20T17:16:18.400Z,100580.34
2022-09-20T17:18:46.117Z,100581.47
2022-09-20T17:21:15.248Z,100578.94
2022-09-20T17:23:47.561Z,100581.09
2022-09-20T17:26:23.080Z,100584.22
2022-09-20T17:28:53.251Z,100582.81
2022-09-20T17:31:24.081Z,100583.00
2022-09-20T17:33:52.616Z,100591.31
2022-09-20T17:36:21.302Z,100596.50
2022-09-20T17:38:53.711Z,100600.50
2022-09-20T17:41:22.233Z,100601.53
2022-09-20T17:43:54.619Z,100604.94
2022-09-20T17:46:25.584Z,100605.97
2022-09-20T17:48:55.576Z,100606.69
2022-09-20T17:51:25.875Z,100612.84
2022-09-20T17:53:55.634Z,100616.13
2022-09-20T17:56:28.296Z,100617.19
2022-09-20T17:58:56.602Z,100625.75
2022-09-20T18:01:27.293Z,100616.78
2022-09-20T18:03:57.145Z,100619.47
2022-09-20T18:06:26.558Z,100629.31
2022-09-20T18:08:55.850Z,100629.94
2022-09-20T18:11:27.513Z,100629.25
2022-09-20T18:13:55.277Z,100635.66
2022-09-20T18:16:23.845Z,100641.00
2022-09-20T18:18:52.811Z,100651.25
2022-09-20T18:21:21.894Z,100640.13
2022-09-20T18:23:50.429Z,100644.31
2022-09-20T18:26:25.515Z,100647.44
2022-09-20T18:28:58.083Z,100647.09
2022-09-20T18:31:28.236Z,100642.34
2022-09-20T18:33:59.665Z,100652.53
2022-09-20T18:36:27.784Z,100647.69
2022-09-20T18:38:56.486Z,100659.25
2022-09-20T18:41:25.832Z,100654.00
2022-09-20T18:43:54.884Z,100649.44
2022-09-20T18:46:24.686Z,100655.34
2022-09-20T18:48:53.593Z,100654.19
2022-09-20T18:51:24.245Z,100664.59
2022-09-20T18:53:52.706Z,100653.38
2022-09-20T18:56:25.738Z,100659.88
2022-09-20T18:58:54.705Z,100658.41
2022-09-20T19:01:55.812Z,100663.94
2022-09-20T19:04:35.435Z,100663.66
2022-09-20T19:07:13.792Z,100662.91
2022-09-20T19:09:47.100Z,100664.78
2022-09-20T19:12:21.687Z,100669.41
2022-09-20T19:15:09.752Z,100665.50
2022-09-20T19:17:52.969Z,100672.16
2022-09-20T19:20:29.242Z,100666.03
2022-09-20T19:23:07.944Z,100670.41
2022-09-20T19:25:43.949Z,100674.34
2022-09-20T19:28:13.381Z,100679.53
2022-09-20T19:30:42.343Z,100686.94
2022-09-20T19:33:17.533Z,100686.34
2022-09-20T19:35:49.454Z,100694.19
2022-09-20T19:38:34.258Z,100685.94
2022-09-20T19:41:14.193Z,100690.56
2022-09-20T19:44:04.293Z,100695.47
2022-09-20T19:46:45.967Z,100703.59
2022-09-20T19:49:16.230Z,100699.69
2022-09-20T19:51:45.433Z,100701.91
2022-09-20T19:54:15.874Z,100709.44
2022-09-20T19:56:52.762Z,100703.97
2022-09-20T19:59:21.413Z,100709.16
2022-09-20T20:01:49.744Z,100711.72
2022-09-20T20:04:17.824Z,100713.22
2022-09-20T20:06:54.491Z,100710.09
2022-09-20T20:09:31.337Z,100717.84
2022-09-20T20:12:07.768Z,100714.97
2022-09-20T20:14:45.523Z,100712.13
2022-09-20T20:17:31.991Z,100728.38
2022-09-20T20:20:18.686Z,100725.91
2022-09-20T20:23:27.862Z,100728.91
2022-09-20T20:26:03.010Z,100732.31
2022-09-20T20:28:30.886Z,100724.13
2022-09-20T20:31:00.702Z,100728.53
2022-09-20T20:33:28.373Z,100728.00
2022-09-20T20:35:56.962Z,100732.72
2022-09-20T20:38:26.182Z,100729.13
2022-09-20T20:41:04.486Z,100730.94
2022-09-20T20:43:32.268Z,100737.31
2022-09-20T20:45:59.842Z,100743.75
2022-09-20T20:48:27.388Z,100742.75
2022-09-20T20:51:02.559Z,100748.75
2022-09-20T20:53:34.122Z,100744.81
2022-09-20T20:56:07.123Z,100748.91
2022-09-20T20:58:36.251Z,100753.06
2022-09-20T21:01:09.099Z,100750.25
2022-09-20T21:03:36.898Z,100754.00
2022-09-20T21:06:05.387Z,100753.38
2022-09-20T21:08:34.187Z,100753.63
2022-09-20T21:11:05.110Z,100757.28
2022-09-20T21:13:33.035Z,100758.97
2022-09-20T21:16:05.658Z,100756.25
2022-09-20T21:18:33.660Z,100756.53
2022-09-20T21:21:02.447Z,100745.81
2022-09-20T21:23:30.301Z,100763.31
2022-09-20T21:26:02.772Z,100765.88
2022-09-20T21:28:31.626Z,100755.50
2022-09-20T21:31:02.866Z,100763.19
2022-09-20T21:33:33.701Z,100756.22
2022-09-20T21:36:02.443Z,100765.09
2022-09-20T21:38:33.173Z,100767.59
2022-09-20T21:41:05.886Z,100773.88
2022-09-20T21:43:35.078Z,100766.97
2022-09-20T21:46:02.993Z,100768.97
2022-09-20T21:48:30.905Z,100776.31
2022-09-20T21:51:03.448Z,100775.00
2022-09-20T21:53:30.944Z,100781.47
2022-09-20T21:55:59.287Z,100788.97
2022-09-20T21:58:27.380Z,100782.75
2022-09-20T22:01:05.659Z,100785.94
2022-09-20T22:03:34.983Z,100786.47
2022-09-20T22:06:11.056Z,100787.72
2022-09-20T22:08:40.173Z,100792.97
2022-09-20T22:11:12.193Z,100786.53
2022-09-20T22:13:42.361Z,100797.13
2022-09-20T22:16:13.374Z,100794.16
2022-09-20T22:18:42.822Z,100789.88
2022-09-20T22:21:12.176Z,100786.97
2022-09-20T22:23:39.824Z,100786.44
2022-09-20T22:26:10.283Z,100790.88
2022-09-20T22:28:38.503Z,100792.72
2022-09-20T22:31:08.147Z,100789.03
2022-09-20T22:33:40.791Z,100792.84
2022-09-20T22:36:09.368Z,100789.34
2022-09-20T22:38:37.102Z,100793.91
2022-09-20T22:41:04.818Z,100793.16
2022-09-20T22:43:33.057Z,100790.06
2022-09-20T22:46:04.418Z,100787.59
2022-09-20T22:48:32.675Z,100788.47
2022-09-20T22:51:02.612Z,100789.91
2022-09-20T22:53:31.397Z,100789.97
2022-09-20T22:56:06.694Z,100788.75
2022-09-20T22:58:35.219Z,100792.56
2022-09-20T23:01:07.676Z,100785.41
2022-09-20T23:03:35.892Z,100786.59
2022-09-20T23:06:05.262Z,100782.38
2022-09-20T23:08:33.595Z,100785.38
2022-09-20T23:11:02.586Z,100791.75
2022-09-20T23:13:30.246Z,100788.25
2022-09-20T23:15:57.791Z,100783.03
2022-09-20T23:18:25.596Z,100786.69
2022-09-20T23:21:02.727Z,100786.16
2022-09-20T23:23:32.687Z,100781.19
2022-09-20T23:26:07.332Z,100780.81
2022-09-20T23:28:35.189Z,100786.47
2022-09-20T23:31:04.705Z,100786.47
2022-09-20T23:33:32.886Z,100786.78
2022-09-20T23:36:00.714Z,100789.19
2022-09-20T23:38:28.294Z,100784.16
2022-09-20T23:40:57.519Z,100788.88
2022-09-20T23:43:25.038Z,100795.88
2022-09-20T23:45:52.958Z,100800.16
2022-09-20T23:48:20.517Z,100796.41
2022-09-20T23:50:48.031Z,100788.34
2022-09-20T23:53:15.583Z,100795.19
2022-09-20T23:55:43.622Z,100792.16
2022-09-20T23:58:12.562Z,100786.88
